sensor_id;sensor_type;location;lat;lon;timestamp;P1;durP1;ratioP1;P2;durP2;ratioP2
14019;SDS011;7085;51.428;6.796;2023-01-25T00:01:31;14.63;;;13.07;;
14019;SDS011;7085;51.428;6.796;2023-01-25T00:03:58;16.87;;;14.40;;
14019;SDS011;7085;51.428;6.796;2023-01-25T00:06:25;16.00;;;12.97;;
14019;SDS011;7085;51.428;6.796;2023-01-25T00:08:52;14.47;;;12.60;;
14019;SDS011;7085;51.428;6.796;2023-01-25T00:11:20;15.57;;;12.73;;
14019;SDS011;7085;51.428;6.796;2023-01-25T00:13:47;15.10;;;12.77;;
14019;SDS011;7085;51.428;6.796;2023-01-25T00:16:14;17.93;;;13.23;;
14019;SDS011;7085;51.428;6.796;2023-01-25T00:18:42;15.47;;;12.90;;
14019;SDS011;7085;51.428;6.796;2023-01-25T00:21:12;15.00;;;13.03;;
14019;SDS011;7085;51.428;6.796;2023-01-25T00:23:39;17.40;;;13.97;;
14019;SDS011;7085;51.428;6.796;2023-01-25T00:26:06;17.17;;;14.13;;
14019;SDS011;7085;51.428;6.796;2023-01-25T00:28:35;15.20;;;12.73;;
14019;SDS011;7085;51.428;6.796;2023-01-25T00:31:02;16.57;;;12.57;;
14019;SDS011;7085;51.428;6.796;2023-01-25T00:33:37;15.03;;;13.30;;
14019;SDS011;7085;51.428;6.796;2023-01-25T00:36:21;15.47;;;13.87;;
14019;SDS011;7085;51.428;6.796;2023-01-25T00:38:52;14.90;;;12.23;;
14019;SDS011;7085;51.428;6.796;2023-01-25T00:41:19;14.53;;;11.93;;
14019;SDS011;7085;51.428;6.796;2023-01-25T00:43:48;15.73;;;12.83;;
14019;SDS011;7085;51.428;6.796;2023-01-25T00:46:16;17.63;;;14.20;;
14019;SDS011;7085;51.428;6.796;2023-01-25T00:48:43;16.20;;;13.10;;
14019;SDS011;7085;51.428;6.796;2023-01-25T00:51:10;15.67;;;12.80;;
14019;SDS011;7085;51.428;6.796;2023-01-25T00:53:37;16.03;;;13.87;;
14019;SDS011;7085;51.428;6.796;2023-01-25T00:56:05;15.97;;;13.23;;
14019;SDS011;7085;51.428;6.796;2023-01-25T00:58:32;16.57;;;13.53;;
14019;SDS011;7085;51.428;6.796;2023-01-25T01:01:00;15.90;;;12.93;;
14019;SDS011;7085;51.428;6.796;2023-01-25T01:03:27;16.60;;;13.83;;
14019;SDS011;7085;51.428;6.796;2023-01-25T01:05:58;15.17;;;13.13;;
14019;SDS011;7085;51.428;6.796;2023-01-25T01:08:25;16.40;;;13.37;;
14019;SDS011;7085;51.428;6.796;2023-01-25T01:10:57;15.33;;;13.40;;
14019;SDS011;7085;51.428;6.796;2023-01-25T01:13:24;14.30;;;12.40;;
14019;SDS011;7085;51.428;6.796;2023-01-25T01:15:51;18.80;;;12.63;;
14019;SDS011;7085;51.428;6.796;2023-01-25T01:18:20;17.43;;;13.27;;
14019;SDS011;7085;51.428;6.796;2023-01-25T01:20:47;14.93;;;12.83;;
14019;SDS011;7085;51.428;6.796;2023-01-25T01:23:15;17.47;;;13.20;;
14019;SDS011;7085;51.428;6.796;2023-01-25T01:25:42;18.07;;;13.83;;
14019;SDS011;7085;51.428;6.796;2023-01-25T01:28:09;17.43;;;12.80;;
14019;SDS011;7085;51.428;6.796;2023-01-25T01:30:36;14.03;;;12.23;;
14019;SDS011;7085;51.428;6.796;2023-01-25T01:33:03;15.33;;;13.00;;
14019;SDS011;7085;51.428;6.796;2023-01-25T01:35:32;14.73;;;11.77;;
14019;SDS011;7085;51.428;6.796;2023-01-25T01:37:59;18.10;;;13.70;;
14019;SDS011;7085;51.428;6.796;2023-01-25T01:40:26;15.67;;;12.13;;
14019;SDS011;7085;51.428;6.796;2023-01-25T01:42:56;15.63;;;12.50;;
14019;SDS011;7085;51.428;6.796;2023-01-25T01:48:10;17.23;;;13.30;;
14019;SDS011;7085;51.428;6.796;2023-01-25T01:50:39;18.20;;;12.97;;
14019;SDS011;7085;51.428;6.796;2023-01-25T01:53:06;16.90;;;13.37;;
14019;SDS011;7085;51.428;6.796;2023-01-25T01:55:34;15.87;;;13.40;;
14019;SDS011;7085;51.428;6.796;2023-01-25T01:58:02;15.27;;;13.47;;
14019;SDS011;7085;51.428;6.796;2023-01-25T02:00:31;18.73;;;14.47;;
14019;SDS011;7085;51.428;6.796;2023-01-25T02:03:00;16.53;;;12.77;;
14019;SDS011;7085;51.428;6.796;2023-01-25T02:05:29;18.57;;;13.27;;
14019;SDS011;7085;51.428;6.796;2023-01-25T02:07:58;14.83;;;12.37;;
14019;SDS011;7085;51.428;6.796;2023-01-25T02:10:26;16.17;;;13.43;;
14019;SDS011;7085;51.428;6.796;2023-01-25T02:12:54;15.77;;;13.07;;
14019;SDS011;7085;51.428;6.796;2023-01-25T02:15:22;17.60;;;13.33;;
14019;SDS011;7085;51.428;6.796;2023-01-25T02:17:49;18.10;;;14.07;;
14019;SDS011;7085;51.428;6.796;2023-01-25T02:20:18;16.20;;;14.00;;
14019;SDS011;7085;51.428;6.796;2023-01-25T02:22:48;15.83;;;12.43;;
14019;SDS011;7085;51.428;6.796;2023-01-25T02:25:18;17.57;;;13.70;;
14019;SDS011;7085;51.428;6.796;2023-01-25T02:27:47;17.20;;;13.50;;
14019;SDS011;7085;51.428;6.796;2023-01-25T02:30:15;15.00;;;12.47;;
14019;SDS011;7085;51.428;6.796;2023-01-25T02:32:43;16.70;;;12.97;;
14019;SDS011;7085;51.428;6.796;2023-01-25T02:35:16;17.70;;;14.30;;
14019;SDS011;7085;51.428;6.796;2023-01-25T02:37:44;15.53;;;13.10;;
14019;SDS011;7085;51.428;6.796;2023-01-25T02:40:11;15.97;;;14.13;;
14019;SDS011;7085;51.428;6.796;2023-01-25T02:42:41;16.73;;;13.07;;
14019;SDS011;7085;51.428;6.796;2023-01-25T02:45:10;20.30;;;14.93;;
14019;SDS011;7085;51.428;6.796;2023-01-25T02:47:39;18.30;;;13.77;;
14019;SDS011;7085;51.428;6.796;2023-01-25T02:50:07;17.20;;;13.37;;
14019;SDS011;7085;51.428;6.796;2023-01-25T02:52:34;16.67;;;13.87;;
14019;SDS011;7085;51.428;6.796;2023-01-25T02:55:01;19.17;;;14.70;;
14019;SDS011;7085;51.428;6.796;2023-01-25T02:57:28;19.00;;;14.87;;
14019;SDS011;7085;51.428;6.796;2023-01-25T02:59:56;19.30;;;14.40;;
14019;SDS011;7085;51.428;6.796;2023-01-25T03:02:23;17.43;;;13.77;;
14019;SDS011;7085;51.428;6.796;2023-01-25T03:04:50;18.47;;;14.53;;
14019;SDS011;7085;51.428;6.796;2023-01-25T03:07:17;17.53;;;13.83;;
14019;SDS011;7085;51.428;6.796;2023-01-25T03:09:44;16.97;;;13.83;;
14019;SDS011;7085;51.428;6.796;2023-01-25T03:12:11;17.20;;;13.40;;
14019;SDS011;7085;51.428;6.796;2023-01-25T03:14:38;18.43;;;14.13;;
14019;SDS011;7085;51.428;6.796;2023-01-25T03:17:09;20.03;;;15.10;;
14019;SDS011;7085;51.428;6.796;2023-01-25T03:19:36;20.87;;;15.47;;
14019;SDS011;7085;51.428;6.796;2023-01-25T03:22:03;16.80;;;12.63;;
14019;SDS011;7085;51.428;6.796;2023-01-25T03:24:31;18.87;;;13.57;;
14019;SDS011;7085;51.428;6.796;2023-01-25T03:26:58;22.00;;;12.90;;
14019;SDS011;7085;51.428;6.796;2023-01-25T03:29:38;18.20;;;13.07;;
14019;SDS011;7085;51.428;6.796;2023-01-25T03:32:05;20.13;;;14.07;;
14019;SDS011;7085;51.428;6.796;2023-01-25T03:34:34;17.80;;;14.47;;
14019;SDS011;7085;51.428;6.796;2023-01-25T03:37:01;18.37;;;13.73;;
14019;SDS011;7085;51.428;6.796;2023-01-25T03:39:28;17.80;;;12.77;;
14019;SDS011;7085;51.428;6.796;2023-01-25T03:41:55;18.77;;;12.87;;
14019;SDS011;7085;51.428;6.796;2023-01-25T03:44:22;17.83;;;12.90;;
14019;SDS011;7085;51.428;6.796;2023-01-25T03:46:49;18.30;;;13.50;;
14019;SDS011;7085;51.428;6.796;2023-01-25T03:49:16;22.37;;;13.67;;
14019;SDS011;7085;51.428;6.796;2023-01-25T03:51:49;16.73;;;12.47;;
14019;SDS011;7085;51.428;6.796;2023-01-25T03:54:16;19.13;;;14.30;;
14019;SDS011;7085;51.428;6.796;2023-01-25T03:56:43;18.73;;;13.13;;
14019;SDS011;7085;51.428;6.796;2023-01-25T03:59:10;18.73;;;14.60;;
14019;SDS011;7085;51.428;6.796;2023-01-25T04:01:37;20.00;;;14.40;;
14019;SDS011;7085;51.428;6.796;2023-01-25T04:04:04;20.33;;;13.57;;
14019;SDS011;7085;51.428;6.796;2023-01-25T04:06:31;17.20;;;12.50;;
14019;SDS011;7085;51.428;6.796;2023-01-25T04:08:59;18.93;;;13.53;;
14019;SDS011;7085;51.428;6.796;2023-01-25T04:11:26;20.60;;;14.40;;
14019;SDS011;7085;51.428;6.796;2023-01-25T04:13:53;18.77;;;13.77;;
14019;SDS011;7085;51.428;6.796;2023-01-25T04:16:20;18.30;;;13.07;;
14019;SDS011;7085;51.428;6.796;2023-01-25T04:18:47;20.67;;;13.83;;
14019;SDS011;7085;51.428;6.796;2023-01-25T04:21:14;17.40;;;13.33;;
14019;SDS011;7085;51.428;6.796;2023-01-25T04:23:42;17.90;;;12.97;;
14019;SDS011;7085;51.428;6.796;2023-01-25T04:26:10;18.70;;;13.20;;
14019;SDS011;7085;51.428;6.796;2023-01-25T04:28:38;20.10;;;13.47;;
14019;SDS011;7085;51.428;6.796;2023-01-25T04:31:05;19.67;;;12.93;;
14019;SDS011;7085;51.428;6.796;2023-01-25T04:33:33;22.83;;;14.60;;
14019;SDS011;7085;51.428;6.796;2023-01-25T04:36:00;20.43;;;14.00;;
14019;SDS011;7085;51.428;6.796;2023-01-25T04:38:27;19.27;;;13.37;;
14019;SDS011;7085;51.428;6.796;2023-01-25T04:40:54;17.87;;;12.83;;
14019;SDS011;7085;51.428;6.796;2023-01-25T04:43:22;20.57;;;13.77;;
14019;SDS011;7085;51.428;6.796;2023-01-25T04:45:50;19.60;;;14.23;;
14019;SDS011;7085;51.428;6.796;2023-01-25T04:48:17;20.60;;;13.63;;
14019;SDS011;7085;51.428;6.796;2023-01-25T04:50:45;20.37;;;14.93;;
14019;SDS011;7085;51.428;6.796;2023-01-25T04:53:12;23.73;;;15.03;;
14019;SDS011;7085;51.428;6.796;2023-01-25T04:55:39;21.40;;;14.77;;
14019;SDS011;7085;51.428;6.796;2023-01-25T04:58:06;18.27;;;14.13;;
14019;SDS011;7085;51.428;6.796;2023-01-25T05:00:34;22.90;;;15.57;;
14019;SDS011;7085;51.428;6.796;2023-01-25T05:03:01;17.73;;;12.73;;
14019;SDS011;7085;51.428;6.796;2023-01-25T05:05:28;22.70;;;15.53;;
14019;SDS011;7085;51.428;6.796;2023-01-25T05:07:55;19.13;;;14.57;;
14019;SDS011;7085;51.428;6.796;2023-01-25T05:10:22;22.93;;;14.13;;
14019;SDS011;7085;51.428;6.796;2023-01-25T05:12:49;21.87;;;15.13;;
14019;SDS011;7085;51.428;6.796;2023-01-25T05:15:16;21.70;;;15.63;;
14019;SDS011;7085;51.428;6.796;2023-01-25T05:17:45;21.57;;;13.70;;
14019;SDS011;7085;51.428;6.796;2023-01-25T05:20:12;19.77;;;14.00;;
14019;SDS011;7085;51.428;6.796;2023-01-25T05:22:39;19.70;;;14.20;;
14019;SDS011;7085;51.428;6.796;2023-01-25T05:25:06;21.37;;;14.47;;
14019;SDS011;7085;51.428;6.796;2023-01-25T05:27:54;19.33;;;13.13;;
14019;SDS011;7085;51.428;6.796;2023-01-25T05:30:20;20.13;;;14.30;;
14019;SDS011;7085;51.428;6.796;2023-01-25T05:32:49;17.97;;;14.47;;
14019;SDS011;7085;51.428;6.796;2023-01-25T05:35:16;20.83;;;14.07;;
14019;SDS011;7085;51.428;6.796;2023-01-25T05:37:43;22.77;;;14.70;;
14019;SDS011;7085;51.428;6.796;2023-01-25T05:40:10;21.30;;;13.80;;
14019;SDS011;7085;51.428;6.796;2023-01-25T05:42:39;20.60;;;14.63;;
14019;SDS011;7085;51.428;6.796;2023-01-25T05:45:06;21.10;;;14.83;;
14019;SDS011;7085;51.428;6.796;2023-01-25T05:47:33;19.40;;;14.47;;
14019;SDS011;7085;51.428;6.796;2023-01-25T05:50:02;20.50;;;13.40;;
14019;SDS011;7085;51.428;6.796;2023-01-25T05:52:29;18.93;;;13.60;;
14019;SDS011;7085;51.428;6.796;2023-01-25T05:54:56;18.33;;;12.90;;
14019;SDS011;7085;51.428;6.796;2023-01-25T05:57:23;21.53;;;13.70;;
14019;SDS011;7085;51.428;6.796;2023-01-25T05:59:52;20.03;;;12.73;;
14019;SDS011;7085;51.428;6.796;2023-01-25T06:02:19;18.90;;;13.00;;
14019;SDS011;7085;51.428;6.796;2023-01-25T06:04:46;18.60;;;13.30;;
14019;SDS011;7085;51.428;6.796;2023-01-25T06:07:15;18.53;;;12.87;;
14019;SDS011;7085;51.428;6.796;2023-01-25T06:09:42;21.53;;;14.13;;
14019;SDS011;7085;51.428;6.796;2023-01-25T06:12:09;19.00;;;12.73;;
14019;SDS011;7085;51.428;6.796;2023-01-25T06:14:36;19.00;;;12.90;;
14019;SDS011;7085;51.428;6.796;2023-01-25T06:17:03;20.20;;;13.40;;
14019;SDS011;7085;51.428;6.796;2023-01-25T06:19:30;18.67;;;14.13;;
14019;SDS011;7085;51.428;6.796;2023-01-25T06:21:57;19.67;;;13.90;;
14019;SDS011;7085;51.428;6.796;2023-01-25T06:24:25;19.47;;;13.30;;
14019;SDS011;7085;51.428;6.796;2023-01-25T06:26:52;19.57;;;14.50;;
14019;SDS011;7085;51.428;6.796;2023-01-25T06:29:19;19.27;;;14.10;;
14019;SDS011;7085;51.428;6.796;2023-01-25T06:31:46;20.47;;;14.23;;
14019;SDS011;7085;51.428;6.796;2023-01-25T06:34:13;22.80;;;15.87;;
14019;SDS011;7085;51.428;6.796;2023-01-25T06:36:41;21.03;;;14.67;;
14019;SDS011;7085;51.428;6.796;2023-01-25T06:39:08;22.80;;;15.47;;
14019;SDS011;7085;51.428;6.796;2023-01-25T06:41:36;21.10;;;15.07;;
14019;SDS011;7085;51.428;6.796;2023-01-25T06:44:03;22.97;;;15.77;;
14019;SDS011;7085;51.428;6.796;2023-01-25T06:46:30;22.97;;;15.90;;
14019;SDS011;7085;51.428;6.796;2023-01-25T06:48:57;22.07;;;15.90;;
14019;SDS011;7085;51.428;6.796;2023-01-25T06:51:24;23.17;;;15.20;;
14019;SDS011;7085;51.428;6.796;2023-01-25T06:53:51;22.60;;;14.90;;
14019;SDS011;7085;51.428;6.796;2023-01-25T06:56:19;22.10;;;15.70;;
14019;SDS011;7085;51.428;6.796;2023-01-25T06:58:48;26.53;;;17.10;;
14019;SDS011;7085;51.428;6.796;2023-01-25T07:01:16;24.70;;;17.00;;
14019;SDS011;7085;51.428;6.796;2023-01-25T07:03:46;27.23;;;17.70;;
14019;SDS011;7085;51.428;6.796;2023-01-25T07:06:13;29.17;;;18.43;;
14019;SDS011;7085;51.428;6.796;2023-01-25T07:08:40;24.40;;;16.93;;
14019;SDS011;7085;51.428;6.796;2023-01-25T07:11:09;29.73;;;17.83;;
14019;SDS011;7085;51.428;6.796;2023-01-25T07:13:38;25.13;;;17.47;;
14019;SDS011;7085;51.428;6.796;2023-01-25T07:16:07;28.47;;;18.87;;
14019;SDS011;7085;51.428;6.796;2023-01-25T07:18:34;27.57;;;18.50;;
14019;SDS011;7085;51.428;6.796;2023-01-25T07:21:02;29.47;;;18.23;;
14019;SDS011;7085;51.428;6.796;2023-01-25T07:23:30;30.30;;;20.67;;
14019;SDS011;7085;51.428;6.796;2023-01-25T07:25:58;26.60;;;18.63;;
14019;SDS011;7085;51.428;6.796;2023-01-25T07:28:25;26.57;;;17.27;;
14019;SDS011;7085;51.428;6.796;2023-01-25T07:30:52;26.23;;;17.40;;
14019;SDS011;7085;51.428;6.796;2023-01-25T07:33:21;26.97;;;18.97;;
14019;SDS011;7085;51.428;6.796;2023-01-25T07:35:48;32.33;;;19.57;;
14019;SDS011;7085;51.428;6.796;2023-01-25T07:38:15;27.97;;;19.47;;
14019;SDS011;7085;51.428;6.796;2023-01-25T07:40:42;30.97;;;19.10;;
14019;SDS011;7085;51.428;6.796;2023-01-25T07:43:09;29.87;;;19.03;;
14019;SDS011;7085;51.428;6.796;2023-01-25T07:45:36;37.70;;;21.27;;
14019;SDS011;7085;51.428;6.796;2023-01-25T07:48:07;33.80;;;20.70;;
14019;SDS011;7085;51.428;6.796;2023-01-25T07:50:36;32.17;;;20.23;;
14019;SDS011;7085;51.428;6.796;2023-01-25T07:53:05;33.57;;;20.23;;
14019;SDS011;7085;51.428;6.796;2023-01-25T07:55:32;32.10;;;20.27;;
14019;SDS011;7085;51.428;6.796;2023-01-25T07:57:59;32.93;;;22.47;;
14019;SDS011;7085;51.428;6.796;2023-01-25T08:00:27;35.10;;;20.10;;
14019;SDS011;7085;51.428;6.796;2023-01-25T08:02:54;36.07;;;22.60;;
14019;SDS011;7085;51.428;6.796;2023-01-25T08:05:21;34.67;;;23.13;;
14019;SDS011;7085;51.428;6.796;2023-01-25T08:07:50;36.57;;;20.90;;
14019;SDS011;7085;51.428;6.796;2023-01-25T08:10:17;37.57;;;21.17;;
14019;SDS011;7085;51.428;6.796;2023-01-25T08:12:45;38.73;;;22.57;;
14019;SDS011;7085;51.428;6.796;2023-01-25T08:15:12;37.17;;;23.00;;
14019;SDS011;7085;51.428;6.796;2023-01-25T08:17:39;33.83;;;21.10;;
14019;SDS011;7085;51.428;6.796;2023-01-25T08:20:07;38.73;;;23.03;;
14019;SDS011;7085;51.428;6.796;2023-01-25T08:22:34;34.17;;;22.63;;
14019;SDS011;7085;51.428;6.796;2023-01-25T08:25:02;38.40;;;23.37;;
14019;SDS011;7085;51.428;6.796;2023-01-25T08:27:30;34.40;;;21.17;;
14019;SDS011;7085;51.428;6.796;2023-01-25T08:29:57;35.83;;;23.03;;
14019;SDS011;7085;51.428;6.796;2023-01-25T08:32:24;38.93;;;23.17;;
14019;SDS011;7085;51.428;6.796;2023-01-25T08:34:51;43.00;;;23.60;;
14019;SDS011;7085;51.428;6.796;2023-01-25T08:37:18;38.83;;;24.50;;
14019;SDS011;7085;51.428;6.796;2023-01-25T08:39:45;41.90;;;25.17;;
14019;SDS011;7085;51.428;6.796;2023-01-25T08:42:13;43.73;;;26.50;;
14019;SDS011;7085;51.428;6.796;2023-01-25T08:44:40;47.67;;;28.13;;
14019;SDS011;7085;51.428;6.796;2023-01-25T08:47:07;54.47;;;28.10;;
14019;SDS011;7085;51.428;6.796;2023-01-25T08:49:34;48.67;;;27.60;;
14019;SDS011;7085;51.428;6.796;2023-01-25T08:52:02;45.70;;;26.70;;
14019;SDS011;7085;51.428;6.796;2023-01-25T08:54:29;46.93;;;27.53;;
14019;SDS011;7085;51.428;6.796;2023-01-25T08:56:56;48.77;;;28.57;;
14019;SDS011;7085;51.428;6.796;2023-01-25T08:59:25;46.20;;;26.73;;
14019;SDS011;7085;51.428;6.796;2023-01-25T09:01:52;47.30;;;26.87;;
14019;SDS011;7085;51.428;6.796;2023-01-25T09:04:19;45.00;;;27.03;;
14019;SDS011;7085;51.428;6.796;2023-01-25T09:06:49;41.73;;;25.73;;
14019;SDS011;7085;51.428;6.796;2023-01-25T09:09:16;43.97;;;26.73;;
14019;SDS011;7085;51.428;6.796;2023-01-25T09:11:43;39.93;;;25.40;;
14019;SDS011;7085;51.428;6.796;2023-01-25T09:14:10;45.93;;;26.90;;
14019;SDS011;7085;51.428;6.796;2023-01-25T09:16:38;46.00;;;27.07;;
14019;SDS011;7085;51.428;6.796;2023-01-25T09:19:05;45.23;;;25.63;;
14019;SDS011;7085;51.428;6.796;2023-01-25T09:21:33;43.30;;;27.53;;
14019;SDS011;7085;51.428;6.796;2023-01-25T09:24:01;49.37;;;28.07;;
14019;SDS011;7085;51.428;6.796;2023-01-25T09:26:28;48.10;;;28.30;;
14019;SDS011;7085;51.428;6.796;2023-01-25T09:28:55;50.37;;;27.60;;
14019;SDS011;7085;51.428;6.796;2023-01-25T09:31:22;46.30;;;26.83;;
14019;SDS011;7085;51.428;6.796;2023-01-25T09:33:51;41.33;;;26.73;;
14019;SDS011;7085;51.428;6.796;2023-01-25T09:36:18;41.30;;;26.77;;
14019;SDS011;7085;51.428;6.796;2023-01-25T09:38:45;49.83;;;27.10;;
14019;SDS011;7085;51.428;6.796;2023-01-25T09:41:17;48.33;;;28.10;;
14019;SDS011;7085;51.428;6.796;2023-01-25T09:43:51;44.17;;;24.30;;
14019;SDS011;7085;51.428;6.796;2023-01-25T09:46:24;37.87;;;24.23;;
14019;SDS011;7085;51.428;6.796;2023-01-25T09:48:55;35.90;;;21.63;;
14019;SDS011;7085;51.428;6.796;2023-01-25T09:51:28;39.93;;;24.50;;
14019;SDS011;7085;51.428;6.796;2023-01-25T09:53:59;37.10;;;23.67;;
14019;SDS011;7085;51.428;6.796;2023-01-25T09:56:28;42.43;;;23.37;;
14019;SDS011;7085;51.428;6.796;2023-01-25T09:58:57;38.00;;;24.00;;
14019;SDS011;7085;51.428;6.796;2023-01-25T10:01:26;37.47;;;23.90;;
14019;SDS011;7085;51.428;6.796;2023-01-25T10:03:58;41.83;;;25.07;;
14019;SDS011;7085;51.428;6.796;2023-01-25T10:06:30;39.93;;;23.67;;
14019;SDS011;7085;51.428;6.796;2023-01-25T10:09:01;47.80;;;26.00;;
14019;SDS011;7085;51.428;6.796;2023-01-25T10:11:32;39.33;;;23.67;;
14019;SDS011;7085;51.428;6.796;2023-01-25T10:13:59;40.20;;;24.37;;
14019;SDS011;7085;51.428;6.796;2023-01-25T10:16:28;38.90;;;24.23;;
14019;SDS011;7085;51.428;6.796;2023-01-25T10:19:00;40.20;;;25.07;;
14019;SDS011;7085;51.428;6.796;2023-01-25T10:21:32;39.27;;;23.97;;
14019;SDS011;7085;51.428;6.796;2023-01-25T10:24:05;39.63;;;24.93;;
14019;SDS011;7085;51.428;6.796;2023-01-25T10:26:36;45.20;;;25.53;;
14019;SDS011;7085;51.428;6.796;2023-01-25T10:29:07;38.00;;;25.23;;
14019;SDS011;7085;51.428;6.796;2023-01-25T10:31:37;42.83;;;26.23;;
14019;SDS011;7085;51.428;6.796;2023-01-25T10:34:13;39.20;;;23.27;;
14019;SDS011;7085;51.428;6.796;2023-01-25T10:36:41;44.37;;;25.40;;
14019;SDS011;7085;51.428;6.796;2023-01-25T10:39:10;48.03;;;25.33;;
14019;SDS011;7085;51.428;6.796;2023-01-25T10:41:37;42.00;;;26.73;;
14019;SDS011;7085;51.428;6.796;2023-01-25T10:44:07;45.03;;;27.93;;
14019;SDS011;7085;51.428;6.796;2023-01-25T10:46:49;39.43;;;26.13;;
14019;SDS011;7085;51.428;6.796;2023-01-25T10:49:22;44.30;;;27.97;;
14019;SDS011;7085;51.428;6.796;2023-01-25T10:51:49;47.57;;;27.47;;
14019;SDS011;7085;51.428;6.796;2023-01-25T10:54:16;45.60;;;27.27;;
14019;SDS011;7085;51.428;6.796;2023-01-25T10:56:43;49.27;;;27.50;;
14019;SDS011;7085;51.428;6.796;2023-01-25T10:59:16;50.23;;;30.33;;
14019;SDS011;7085;51.428;6.796;2023-01-25T11:01:44;47.87;;;29.70;;
14019;SDS011;7085;51.428;6.796;2023-01-25T11:04:23;51.33;;;29.73;;
14019;SDS011;7085;51.428;6.796;2023-01-25T11:06:50;52.30;;;30.50;;
14019;SDS011;7085;51.428;6.796;2023-01-25T11:09:31;57.40;;;30.23;;
14019;SDS011;7085;51.428;6.796;2023-01-25T11:11:58;47.67;;;27.23;;
14019;SDS011;7085;51.428;6.796;2023-01-25T11:14:27;43.50;;;25.07;;
14019;SDS011;7085;51.428;6.796;2023-01-25T11:16:55;44.37;;;27.13;;
14019;SDS011;7085;51.428;6.796;2023-01-25T11:19:25;45.40;;;26.70;;
14019;SDS011;7085;51.428;6.796;2023-01-25T11:21:52;47.50;;;26.13;;
14019;SDS011;7085;51.428;6.796;2023-01-25T11:24:21;48.00;;;28.30;;
14019;SDS011;7085;51.428;6.796;2023-01-25T11:26:51;43.27;;;26.73;;
14019;SDS011;7085;51.428;6.796;2023-01-25T11:29:36;46.37;;;26.83;;
14019;SDS011;7085;51.428;6.796;2023-01-25T11:32:04;52.17;;;29.77;;
14019;SDS011;7085;51.428;6.796;2023-01-25T11:34:41;48.07;;;26.67;;
14019;SDS011;7085;51.428;6.796;2023-01-25T11:39:54;41.53;;;26.33;;
14019;SDS011;7085;51.428;6.796;2023-01-25T11:42:26;44.33;;;26.80;;
14019;SDS011;7085;51.428;6.796;2023-01-25T11:45:01;43.37;;;26.90;;
14019;SDS011;7085;51.428;6.796;2023-01-25T11:47:37;44.60;;;26.07;;
14019;SDS011;7085;51.428;6.796;2023-01-25T11:50:09;57.03;;;31.10;;
14019;SDS011;7085;51.428;6.796;2023-01-25T11:52:57;49.33;;;27.70;;
14019;SDS011;7085;51.428;6.796;2023-01-25T11:55:25;47.80;;;27.60;;
14019;SDS011;7085;51.428;6.796;2023-01-25T11:57:56;44.53;;;27.83;;
14019;SDS011;7085;51.428;6.796;2023-01-25T12:00:31;48.70;;;28.13;;
14019;SDS011;7085;51.428;6.796;2023-01-25T12:03:08;45.17;;;26.27;;
14019;SDS011;7085;51.428;6.796;2023-01-25T12:05:43;47.27;;;25.50;;
14019;SDS011;7085;51.428;6.796;2023-01-25T12:08:18;46.47;;;27.07;;
14019;SDS011;7085;51.428;6.796;2023-01-25T12:10:49;44.77;;;26.93;;
14019;SDS011;7085;51.428;6.796;2023-01-25T12:13:21;45.80;;;28.10;;
14019;SDS011;7085;51.428;6.796;2023-01-25T12:16:01;45.90;;;26.67;;
14019;SDS011;7085;51.428;6.796;2023-01-25T12:18:43;43.73;;;25.53;;
14019;SDS011;7085;51.428;6.796;2023-01-25T12:21:17;40.13;;;25.30;;
14019;SDS011;7085;51.428;6.796;2023-01-25T12:23:55;43.93;;;26.27;;
14019;SDS011;7085;51.428;6.796;2023-01-25T12:26:26;41.27;;;24.97;;
14019;SDS011;7085;51.428;6.796;2023-01-25T12:28:56;45.30;;;25.33;;
14019;SDS011;7085;51.428;6.796;2023-01-25T12:31:27;47.30;;;27.47;;
14019;SDS011;7085;51.428;6.796;2023-01-25T12:33:58;43.67;;;27.07;;
14019;SDS011;7085;51.428;6.796;2023-01-25T12:36:29;48.63;;;28.23;;
14019;SDS011;7085;51.428;6.796;2023-01-25T12:38:58;38.33;;;22.50;;
14019;SDS011;7085;51.428;6.796;2023-01-25T12:41:32;41.67;;;24.80;;
14019;SDS011;7085;51.428;6.796;2023-01-25T12:44:02;44.93;;;26.23;;
14019;SDS011;7085;51.428;6.796;2023-01-25T12:46:33;50.10;;;25.87;;
14019;SDS011;7085;51.428;6.796;2023-01-25T12:49:04;47.43;;;27.27;;
14019;SDS011;7085;51.428;6.796;2023-01-25T12:51:37;41.77;;;25.43;;
14019;SDS011;7085;51.428;6.796;2023-01-25T12:54:05;35.93;;;21.47;;
14019;SDS011;7085;51.428;6.796;2023-01-25T12:56:38;33.23;;;21.43;;
14019;SDS011;7085;51.428;6.796;2023-01-25T12:59:10;35.87;;;21.63;;
14019;SDS011;7085;51.428;6.796;2023-01-25T13:01:43;36.37;;;22.83;;
14019;SDS011;7085;51.428;6.796;2023-01-25T13:04:19;38.80;;;23.83;;
14019;SDS011;7085;51.428;6.796;2023-01-25T13:06:51;43.33;;;24.37;;
14019;SDS011;7085;51.428;6.796;2023-01-25T13:09:21;41.53;;;23.93;;
14019;SDS011;7085;51.428;6.796;2023-01-25T13:11:51;38.97;;;24.57;;
14019;SDS011;7085;51.428;6.796;2023-01-25T13:14:25;39.23;;;24.73;;
14019;SDS011;7085;51.428;6.796;2023-01-25T13:16:53;35.50;;;22.20;;
14019;SDS011;7085;51.428;6.796;2023-01-25T13:19:37;38.93;;;22.23;;
14019;SDS011;7085;51.428;6.796;2023-01-25T13:22:07;44.57;;;25.27;;
14019;SDS011;7085;51.428;6.796;2023-01-25T13:27:24;38.13;;;22.10;;
14019;SDS011;7085;51.428;6.796;2023-01-25T13:29:55;38.00;;;22.07;;
14019;SDS011;7085;51.428;6.796;2023-01-25T13:32:51;37.47;;;23.50;;
14019;SDS011;7085;51.428;6.796;2023-01-25T13:35:36;37.67;;;23.10;;
14019;SDS011;7085;51.428;6.796;2023-01-25T13:38:18;41.40;;;23.90;;
14019;SDS011;7085;51.428;6.796;2023-01-25T13:41:00;39.80;;;22.93;;
14019;SDS011;7085;51.428;6.796;2023-01-25T13:43:27;38.93;;;23.23;;
14019;SDS011;7085;51.428;6.796;2023-01-25T13:45:54;41.60;;;24.07;;
14019;SDS011;7085;51.428;6.796;2023-01-25T13:48:22;40.73;;;24.33;;
14019;SDS011;7085;51.428;6.796;2023-01-25T13:50:50;45.77;;;25.23;;
14019;SDS011;7085;51.428;6.796;2023-01-25T13:53:21;44.13;;;24.57;;
14019;SDS011;7085;51.428;6.796;2023-01-25T13:55:48;37.10;;;23.83;;
14019;SDS011;7085;51.428;6.796;2023-01-25T13:58:16;36.13;;;21.63;;
14019;SDS011;7085;51.428;6.796;2023-01-25T14:00:47;32.83;;;19.83;;
14019;SDS011;7085;51.428;6.796;2023-01-25T14:03:15;34.67;;;21.30;;
14019;SDS011;7085;51.428;6.796;2023-01-25T14:05:47;34.13;;;19.30;;
14019;SDS011;7085;51.428;6.796;2023-01-25T14:08:16;34.40;;;20.60;;
14019;SDS011;7085;51.428;6.796;2023-01-25T14:10:44;38.60;;;21.73;;
14019;SDS011;7085;51.428;6.796;2023-01-25T14:13:13;39.63;;;22.20;;
14019;SDS011;7085;51.428;6.796;2023-01-25T14:15:40;44.40;;;25.27;;
14019;SDS011;7085;51.428;6.796;2023-01-25T14:18:17;48.70;;;26.67;;
14019;SDS011;7085;51.428;6.796;2023-01-25T14:20:45;48.90;;;27.03;;
14019;SDS011;7085;51.428;6.796;2023-01-25T14:23:20;52.43;;;27.70;;
14019;SDS011;7085;51.428;6.796;2023-01-25T14:25:48;48.03;;;27.37;;
14019;SDS011;7085;51.428;6.796;2023-01-25T14:28:16;55.90;;;29.33;;
14019;SDS011;7085;51.428;6.796;2023-01-25T14:30:45;52.67;;;30.00;;
14019;SDS011;7085;51.428;6.796;2023-01-25T14:33:16;54.33;;;29.83;;
14019;SDS011;7085;51.428;6.796;2023-01-25T14:35:44;52.40;;;28.53;;
14019;SDS011;7085;51.428;6.796;2023-01-25T14:38:21;51.10;;;28.20;;
14019;SDS011;7085;51.428;6.796;2023-01-25T14:40:50;50.47;;;27.63;;
14019;SDS011;7085;51.428;6.796;2023-01-25T14:43:18;42.60;;;25.30;;
14019;SDS011;7085;51.428;6.796;2023-01-25T14:45:46;48.00;;;28.60;;
14019;SDS011;7085;51.428;6.796;2023-01-25T14:51:01;54.10;;;28.80;;
14019;SDS011;7085;51.428;6.796;2023-01-25T14:53:29;47.30;;;24.30;;
14019;SDS011;7085;51.428;6.796;2023-01-25T14:55:57;48.17;;;25.73;;